createdAt,value
2022-09-07T00:02:27.245Z,0.70
2022-09-07T00:07:34.243Z,0.70
2022-09-07T00:12:41.254Z,0.70
2022-09-07T00:17:48.133Z,0.70
2022-09-07T00:22:55.002Z,0.77
2022-09-07T00:28:01.885Z,0.70
2022-09-07T00:33:08.772Z,1.00
2022-09-07T00:38:15.908Z,0.60
2022-09-07T00:43:25.926Z,0.70
2022-09-07T00:48:36.205Z,0.80
2022-09-07T00:53:46.638Z,0.70
2022-09-07T00:58:54.978Z,0.90
2022-09-07T01:04:03.437Z,0.80
2022-09-07T01:09:13.603Z,0.83
2022-09-07T01:14:23.512Z,0.80
2022-09-07T01:19:35.118Z,0.77
2022-09-07T01:24:44.259Z,0.90
2022-09-07T01:29:52.298Z,0.70
2022-09-07T01:35:01.342Z,0.80
2022-09-07T01:40:11.251Z,0.90
2022-09-07T01:45:21.143Z,1.00
2022-09-07T01:50:31.238Z,0.60
2022-09-07T01:55:41.032Z,0.90
2022-09-07T02:00:51.121Z,1.00
2022-09-07T02:06:01.118Z,0.97
2022-09-07T02:11:11.096Z,0.63
2022-09-07T02:16:20.982Z,0.87
2022-09-07T02:21:30.910Z,0.70
2022-09-07T02:26:40.620Z,0.83
2022-09-07T02:31:47.685Z,0.90
2022-09-07T02:36:55.594Z,0.80
2022-09-07T02:42:05.492Z,0.97
2022-09-07T02:47:15.279Z,0.80
2022-09-07T02:52:23.310Z,0.90
2022-09-07T02:57:33.105Z,0.70
2022-09-07T03:02:43.074Z,0.77
2022-09-07T03:07:52.937Z,0.90
2022-09-07T03:13:00.008Z,0.80
2022-09-07T03:18:07.220Z,1.00
2022-09-07T03:23:14.161Z,0.97
2022-09-07T03:28:21.043Z,0.80
2022-09-07T03:33:27.903Z,0.93
2022-09-07T03:38:34.770Z,1.17
2022-09-07T03:43:41.818Z,0.90
2022-09-07T03:48:50.793Z,0.93
2022-09-07T03:53:57.985Z,0.93
2022-09-07T03:59:05.135Z,0.80
2022-09-07T04:04:12.080Z,0.80
2022-09-07T04:09:19.312Z,0.87
2022-09-07T04:14:26.397Z,1.20
2022-09-07T04:19:33.587Z,1.10
2022-09-07T04:24:40.610Z,0.80
2022-09-07T04:29:49.259Z,0.80
2022-09-07T04:34:56.122Z,0.87
2022-09-07T04:40:03.043Z,0.90
2022-09-07T04:45:10.218Z,0.90
2022-09-07T04:50:19.280Z,0.90
2022-09-07T04:55:26.708Z,0.80
2022-09-07T05:00:33.569Z,1.27
2022-09-07T05:05:40.442Z,0.77
2022-09-07T05:10:50.297Z,1.00
2022-09-07T05:15:57.623Z,0.83
2022-09-07T05:21:07.517Z,0.80
2022-09-07T05:26:14.878Z,1.00
2022-09-07T05:31:25.026Z,1.00
2022-09-07T05:36:32.801Z,0.90
2022-09-07T05:41:39.976Z,0.90
2022-09-07T05:46:47.077Z,0.90
2022-09-07T05:51:53.999Z,0.70
2022-09-07T05:57:02.505Z,0.70
2022-09-07T06:02:11.200Z,0.93
2022-09-07T06:07:22.199Z,1.00
2022-09-07T06:12:26.862Z,0.80
2022-09-07T06:17:34.108Z,0.97
2022-09-07T06:22:41.166Z,0.80
2022-09-07T06:27:50.262Z,0.90
2022-09-07T06:32:57.264Z,1.00
2022-09-07T06:38:04.305Z,1.00
2022-09-07T06:43:11.468Z,1.10
2022-09-07T06:48:18.390Z,0.90
2022-09-07T06:58:38.019Z,0.97
2022-09-07T07:03:45.816Z,0.93
2022-09-07T07:08:55.004Z,0.90
2022-09-07T07:14:02.016Z,0.87
2022-09-07T07:19:09.553Z,0.90
2022-09-07T07:24:16.667Z,1.00
2022-09-07T07:29:27.955Z,1.00
2022-09-07T07:34:33.366Z,0.73
2022-09-07T08:00:27.472Z,1.20
2022-09-07T08:05:26.151Z,0.93
2022-09-07T08:10:33.999Z,0.90
2022-09-07T08:15:43.511Z,1.00
2022-09-07T08:20:50.315Z,0.90
2022-09-07T08:25:59.209Z,1.03
2022-09-07T08:31:08.767Z,0.97
2022-09-07T08:36:19.539Z,0.90
2022-09-07T08:41:30.023Z,1.10
2022-09-07T08:46:38.622Z,1.00
2022-09-07T08:51:48.868Z,0.90
2022-09-07T09:07:21.781Z,1.10
2022-09-07T09:12:36.989Z,1.10
2022-09-07T09:17:44.010Z,1.20
2022-09-07T09:22:53.616Z,1.10
2022-09-07T09:28:01.253Z,1.10
2022-09-07T09:33:11.211Z,1.23
2022-09-07T09:38:21.630Z,1.10
2022-09-07T09:43:31.576Z,1.20
2022-09-07T09:48:42.050Z,1.33
2022-09-07T09:53:52.213Z,1.10
2022-09-07T09:59:56.489Z,1.20
2022-09-07T10:04:17.558Z,1.23
2022-09-07T10:09:26.190Z,1.20
2022-09-07T10:14:34.543Z,1.70
2022-09-07T10:19:44.317Z,1.50
2022-09-07T10:24:52.882Z,1.47
2022-09-07T10:30:00.334Z,1.80
2022-09-07T10:35:08.020Z,1.60
2022-09-07T10:40:16.526Z,1.83
2022-09-07T10:45:26.538Z,1.60
2022-09-07T10:50:37.739Z,1.87
2022-09-07T10:55:48.347Z,1.70
2022-09-07T11:00:58.732Z,1.70
2022-09-07T11:06:09.551Z,1.63
2022-09-07T11:11:18.242Z,1.60
2022-09-07T11:21:56.402Z,1.70
2022-09-07T11:26:52.309Z,1.60
2022-09-07T11:32:02.505Z,1.60
2022-09-07T11:37:13.049Z,1.70
2022-09-07T11:47:35.368Z,1.30
2022-09-07T11:52:45.991Z,1.67
2022-09-07T11:57:55.741Z,1.40
2022-09-07T12:03:06.237Z,1.50
2022-09-07T12:08:16.337Z,1.40
2022-09-07T12:13:25.602Z,1.60
2022-09-07T12:18:35.956Z,1.77
2022-09-07T12:23:46.112Z,1.80
2022-09-07T12:28:52.697Z,1.57
2022-09-07T12:34:02.581Z,1.60
2022-09-07T12:39:12.600Z,1.47
2022-09-07T12:44:26.022Z,1.70
2022-09-07T12:49:32.104Z,1.60
2022-09-07T12:54:42.075Z,1.70
2022-09-07T12:59:52.180Z,1.50
2022-09-07T13:05:00.442Z,1.40
2022-09-07T13:10:10.491Z,1.87
2022-09-07T13:15:24.268Z,1.70
2022-09-07T13:20:36.078Z,1.60
2022-09-07T13:25:43.957Z,1.80
2022-09-07T13:30:54.059Z,2.10
2022-09-07T13:36:04.087Z,1.70
2022-09-07T13:41:14.132Z,1.90
2022-09-07T13:46:24.162Z,1.70
2022-09-07T13:51:34.362Z,1.53
2022-09-07T13:56:44.546Z,1.60
2022-09-07T14:01:52.684Z,1.90
2022-09-07T14:07:02.797Z,1.83
2022-09-07T14:12:12.777Z,1.60
2022-09-07T14:17:21.311Z,1.80
2022-09-07T14:22:31.286Z,1.60
2022-09-07T14:27:41.202Z,1.70
2022-09-07T14:32:52.472Z,1.80
2022-09-07T14:38:03.446Z,1.63
2022-09-07T14:43:13.367Z,2.30
2022-09-07T14:48:31.494Z,1.90
2022-09-07T14:53:34.509Z,2.00
2022-09-07T14:58:41.038Z,1.77
2022-09-07T15:03:47.649Z,2.00
2022-09-07T15:08:54.818Z,1.83
2022-09-07T15:14:05.229Z,1.90
2022-09-07T15:19:15.197Z,1.80
2022-09-07T15:24:22.552Z,1.47
2022-09-07T15:29:30.361Z,1.80
2022-09-07T15:34:37.895Z,1.97
2022-09-07T15:39:45.225Z,1.90
2022-09-07T15:44:53.853Z,1.60
2022-09-07T15:50:00.749Z,1.63
2022-09-07T15:55:09.608Z,1.60
2022-09-07T16:00:17.087Z,1.70
2022-09-07T16:05:26.982Z,1.60
2022-09-07T16:10:32.941Z,1.70
2022-09-07T16:15:45.199Z,1.67
2022-09-07T16:20:54.589Z,1.67
2022-09-07T16:26:04.646Z,1.40
2022-09-07T16:31:15.192Z,1.80
2022-09-07T16:36:24.768Z,1.90
2022-09-07T16:41:33.573Z,2.00
2022-09-07T16:46:40.757Z,1.93
2022-09-07T16:51:49.614Z,1.90
2022-09-07T16:56:56.824Z,2.00
2022-09-07T17:02:03.873Z,1.90
2022-09-07T17:07:11.114Z,2.03
2022-09-07T17:12:18.002Z,2.13
2022-09-07T17:17:25.157Z,1.70
2022-09-07T17:22:32.072Z,1.80
2022-09-07T17:27:41.187Z,2.03
2022-09-07T17:32:47.545Z,2.00
2022-09-07T17:37:55.155Z,2.47
2022-09-07T17:48:10.601Z,2.10
2022-09-07T17:53:17.518Z,2.20
2022-09-07T17:58:24.404Z,2.23
2022-09-07T18:03:36.018Z,2.20
2022-09-07T18:08:41.949Z,2.17
2022-09-07T18:13:51.834Z,2.20
2022-09-07T18:19:00.981Z,2.10
2022-09-07T18:24:11.767Z,3.23
2022-09-07T18:29:33.023Z,2.50
2022-09-07T18:34:31.893Z,2.50
2022-09-07T18:39:40.854Z,2.40
2022-09-07T18:49:57.360Z,2.47
2022-09-07T18:55:04.278Z,2.63
2022-09-07T19:00:13.234Z,2.97
2022-09-07T19:10:29.345Z,2.50
2022-09-07T19:15:37.774Z,2.33
2022-09-07T19:20:45.268Z,2.70
2022-09-07T19:25:54.065Z,2.27
2022-09-07T19:31:04.388Z,2.13
2022-09-07T19:36:12.122Z,2.17
2022-09-07T19:41:20.119Z,2.30
2022-09-07T19:46:27.847Z,2.20
2022-09-07T19:51:36.890Z,2.07
2022-09-07T19:56:45.104Z,2.10
2022-09-07T20:01:54.189Z,2.40
2022-09-07T20:07:01.704Z,2.13
2022-09-07T20:12:10.111Z,2.30
2022-09-07T20:17:17.489Z,2.20
2022-09-07T20:22:24.636Z,2.23
2022-09-07T20:27:32.949Z,2.50
2022-09-07T20:32:40.075Z,2.60
2022-09-07T20:37:47.048Z,2.27
2022-09-07T20:42:54.008Z,2.20
2022-09-07T20:48:03.097Z,2.30
2022-09-07T20:53:10.023Z,2.30
2022-09-07T20:58:18.041Z,2.30
2022-09-07T21:03:25.639Z,2.23
2022-09-07T21:08:34.418Z,2.47
2022-09-07T21:13:41.271Z,2.50
2022-09-07T21:18:48.158Z,2.27
2022-09-07T21:23:57.943Z,2.30
2022-09-07T21:29:05.932Z,2.00
2022-09-07T21:34:13.125Z,2.40
2022-09-07T21:39:21.079Z,2.20
2022-09-07T21:44:28.011Z,2.20
2022-09-07T21:49:34.970Z,2.43
2022-09-07T21:54:42.508Z,2.40
2022-09-07T21:59:49.442Z,2.10
2022-09-07T22:04:56.332Z,2.30
2022-09-07T22:10:03.551Z,2.00
2022-09-07T22:15:11.199Z,2.23
2022-09-07T22:20:18.311Z,2.30
2022-09-07T22:25:25.449Z,2.20
2022-09-07T22:30:32.308Z,2.10
2022-09-07T22:35:40.131Z,2.00
2022-09-07T22:40:47.161Z,2.13
2022-09-07T22:45:54.060Z,2.30
2022-09-07T22:51:01.975Z,2.23
2022-09-07T22:56:10.909Z,1.70
2022-09-07T23:01:18.318Z,2.10
2022-09-07T23:06:28.420Z,1.80
2022-09-07T23:11:35.478Z,1.80
2022-09-07T23:16:43.659Z,1.90
2022-09-07T23:21:50.974Z,1.90
2022-09-07T23:26:58.043Z,2.07
2022-09-07T23:32:05.374Z,2.40
2022-09-07T23:37:12.478Z,1.80
2022-09-07T23:42:20.583Z,2.07
2022-09-07T23:47:28.144Z,1.93
2022-09-07T23:52:35.445Z,2.40
2022-09-07T23:57:43.085Z,2.47
